sensor_id;sensor_type;location;lat;lon;timestamp;temperature;humidity
7516;DHT22;3799;47.184;8.538;2023-09-08T00:01:56;21.20;99.90
7516;DHT22;3799;47.184;8.538;2023-09-08T00:04:44;21.20;99.90
7516;DHT22;3799;47.184;8.538;2023-09-08T00:07:33;21.20;99.90
7516;DHT22;3799;47.184;8.538;2023-09-08T00:10:23;21.20;99.90
7516;DHT22;3799;47.184;8.538;2023-09-08T00:13:11;21.10;99.90
7516;DHT22;3799;47.184;8.538;2023-09-08T00:15:58;21.00;99.90
7516;DHT22;3799;47.184;8.538;2023-09-08T00:18:48;20.90;99.90
7516;DHT22;3799;47.184;8.538;2023-09-08T00:21:42;20.80;99.90
7516;DHT22;3799;47.184;8.538;2023-09-08T00:24:30;20.70;99.90
7516;DHT22;3799;47.184;8.538;2023-09-08T00:27:17;20.70;99.90
7516;DHT22;3799;47.184;8.538;2023-09-08T00:30:05;20.70;99.90
7516;DHT22;3799;47.184;8.538;2023-09-08T00:32:53;20.70;99.90
7516;DHT22;3799;47.184;8.538;2023-09-08T00:35:44;20.70;99.90
7516;DHT22;3799;47.184;8.538;2023-09-08T00:38:31;20.80;99.90
7516;DHT22;3799;47.184;8.538;2023-09-08T00:41:19;20.80;99.90
7516;DHT22;3799;47.184;8.538;2023-09-08T00:44:09;20.90;99.90
7516;DHT22;3799;47.184;8.538;2023-09-08T00:46:58;20.90;99.90
7516;DHT22;3799;47.184;8.538;2023-09-08T00:49:47;20.90;99.90
7516;DHT22;3799;47.184;8.538;2023-09-08T00:52:36;20.90;99.90
7516;DHT22;3799;47.184;8.538;2023-09-08T00:55:24;20.90;99.90
7516;DHT22;3799;47.184;8.538;2023-09-08T00:58:12;20.90;99.90
7516;DHT22;3799;47.184;8.538;2023-09-08T01:00:59;20.70;99.90
7516;DHT22;3799;47.184;8.538;2023-09-08T01:03:47;20.60;99.90
7516;DHT22;3799;47.184;8.538;2023-09-08T01:06:34;20.30;99.90
7516;DHT22;3799;47.184;8.538;2023-09-08T01:09:24;20.50;99.90
7516;DHT22;3799;47.184;8.538;2023-09-08T01:12:15;20.50;99.90
7516;DHT22;3799;47.184;8.538;2023-09-08T01:15:03;20.50;99.90
7516;DHT22;3799;47.184;8.538;2023-09-08T01:17:52;20.60;99.90
7516;DHT22;3799;47.184;8.538;2023-09-08T01:24:21;20.70;99.90
7516;DHT22;3799;47.184;8.538;2023-09-08T01:27:12;20.70;99.90
7516;DHT22;3799;47.184;8.538;2023-09-08T01:30:02;20.80;99.90
7516;DHT22;3799;47.184;8.538;2023-09-08T01:32:52;20.80;99.90
7516;DHT22;3799;47.184;8.538;2023-09-08T01:35:43;20.80;99.90
7516;DHT22;3799;47.184;8.538;2023-09-08T01:38:33;20.80;99.90
7516;DHT22;3799;47.184;8.538;2023-09-08T01:41:21;20.80;99.90
7516;DHT22;3799;47.184;8.538;2023-09-08T01:44:08;20.70;99.90
7516;DHT22;3799;47.184;8.538;2023-09-08T01:46:57;20.70;99.90
7516;DHT22;3799;47.184;8.538;2023-09-08T01:49:45;20.70;99.90
7516;DHT22;3799;47.184;8.538;2023-09-08T01:52:49;20.70;99.90
7516;DHT22;3799;47.184;8.538;2023-09-08T01:55:46;20.70;99.90
7516;DHT22;3799;47.184;8.538;2023-09-08T01:58:36;20.70;99.90
7516;DHT22;3799;47.184;8.538;2023-09-08T02:01:23;20.60;99.90
7516;DHT22;3799;47.184;8.538;2023-09-08T02:04:11;20.50;99.90
7516;DHT22;3799;47.184;8.538;2023-09-08T02:06:58;20.50;99.90
7516;DHT22;3799;47.184;8.538;2023-09-08T02:09:47;20.40;99.90
7516;DHT22;3799;47.184;8.538;2023-09-08T02:12:37;20.20;99.90
7516;DHT22;3799;47.184;8.538;2023-09-08T02:15:35;20.00;99.90
7516;DHT22;3799;47.184;8.538;2023-09-08T02:18:27;20.10;99.90
7516;DHT22;3799;47.184;8.538;2023-09-08T02:21:15;20.00;99.90
7516;DHT22;3799;47.184;8.538;2023-09-08T02:24:05;20.00;99.90
7516;DHT22;3799;47.184;8.538;2023-09-08T02:26:56;20.00;99.90
7516;DHT22;3799;47.184;8.538;2023-09-08T02:29:47;20.00;99.90
7516;DHT22;3799;47.184;8.538;2023-09-08T02:32:34;20.00;99.90
7516;DHT22;3799;47.184;8.538;2023-09-08T02:35:23;20.00;99.90
7516;DHT22;3799;47.184;8.538;2023-09-08T02:38:23;20.00;99.90
7516;DHT22;3799;47.184;8.538;2023-09-08T02:41:10;20.00;99.90
7516;DHT22;3799;47.184;8.538;2023-09-08T02:43:57;20.00;99.90
7516;DHT22;3799;47.184;8.538;2023-09-08T02:46:54;20.10;99.90
7516;DHT22;3799;47.184;8.538;2023-09-08T02:49:41;20.10;99.90
7516;DHT22;3799;47.184;8.538;2023-09-08T02:52:32;19.90;99.90
7516;DHT22;3799;47.184;8.538;2023-09-08T02:55:23;20.10;99.90
7516;DHT22;3799;47.184;8.538;2023-09-08T02:58:10;20.00;99.90
7516;DHT22;3799;47.184;8.538;2023-09-08T03:00:58;20.10;99.90
7516;DHT22;3799;47.184;8.538;2023-09-08T03:03:46;20.00;99.90
7516;DHT22;3799;47.184;8.538;2023-09-08T03:06:35;19.80;99.90
7516;DHT22;3799;47.184;8.538;2023-09-08T03:09:22;20.00;99.90
7516;DHT22;3799;47.184;8.538;2023-09-08T03:12:14;20.00;99.90
7516;DHT22;3799;47.184;8.538;2023-09-08T03:15:04;19.90;99.90
7516;DHT22;3799;47.184;8.538;2023-09-08T03:18:02;19.90;99.90
7516;DHT22;3799;47.184;8.538;2023-09-08T03:20:50;20.00;99.90
7516;DHT22;3799;47.184;8.538;2023-09-08T03:23:38;20.00;99.90
7516;DHT22;3799;47.184;8.538;2023-09-08T03:26:26;20.00;99.90
7516;DHT22;3799;47.184;8.538;2023-09-08T03:29:14;20.00;99.90
7516;DHT22;3799;47.184;8.538;2023-09-08T03:32:02;20.00;99.90
7516;DHT22;3799;47.184;8.538;2023-09-08T03:34:58;19.80;99.90
7516;DHT22;3799;47.184;8.538;2023-09-08T03:37:45;19.90;99.90
7516;DHT22;3799;47.184;8.538;2023-09-08T03:40:33;20.00;99.90
7516;DHT22;3799;47.184;8.538;2023-09-08T03:43:22;20.10;99.90
7516;DHT22;3799;47.184;8.538;2023-09-08T03:46:09;19.90;99.90
7516;DHT22;3799;47.184;8.538;2023-09-08T03:48:57;19.80;99.90
7516;DHT22;3799;47.184;8.538;2023-09-08T03:51:48;19.80;99.90
7516;DHT22;3799;47.184;8.538;2023-09-08T03:54:35;19.80;99.90
7516;DHT22;3799;47.184;8.538;2023-09-08T03:57:22;19.80;99.90
7516;DHT22;3799;47.184;8.538;2023-09-08T04:00:10;19.70;99.90
7516;DHT22;3799;47.184;8.538;2023-09-08T04:02:58;19.70;99.90
7516;DHT22;3799;47.184;8.538;2023-09-08T04:05:46;19.50;99.90
7516;DHT22;3799;47.184;8.538;2023-09-08T04:08:34;19.70;99.90
7516;DHT22;3799;47.184;8.538;2023-09-08T04:11:21;19.70;99.90
7516;DHT22;3799;47.184;8.538;2023-09-08T04:14:08;19.70;99.90
7516;DHT22;3799;47.184;8.538;2023-09-08T04:16:59;19.70;99.90
7516;DHT22;3799;47.184;8.538;2023-09-08T04:19:46;19.60;99.90
7516;DHT22;3799;47.184;8.538;2023-09-08T04:22:34;19.70;99.90
7516;DHT22;3799;47.184;8.538;2023-09-08T04:25:22;19.70;99.90
7516;DHT22;3799;47.184;8.538;2023-09-08T04:28:09;19.60;99.90
7516;DHT22;3799;47.184;8.538;2023-09-08T04:30:56;19.60;99.90
7516;DHT22;3799;47.184;8.538;2023-09-08T04:33:46;19.60;99.90
7516;DHT22;3799;47.184;8.538;2023-09-08T04:36:33;19.50;99.90
7516;DHT22;3799;47.184;8.538;2023-09-08T04:39:21;19.80;99.90
7516;DHT22;3799;47.184;8.538;2023-09-08T04:42:08;19.60;99.90
7516;DHT22;3799;47.184;8.538;2023-09-08T04:44:56;19.40;99.90
7516;DHT22;3799;47.184;8.538;2023-09-08T04:47:43;19.40;99.90
7516;DHT22;3799;47.184;8.538;2023-09-08T04:50:45;19.50;99.90
7516;DHT22;3799;47.184;8.538;2023-09-08T04:53:35;19.60;99.90
7516;DHT22;3799;47.184;8.538;2023-09-08T04:56:32;19.50;99.90
7516;DHT22;3799;47.184;8.538;2023-09-08T04:59:22;19.10;99.90
7516;DHT22;3799;47.184;8.538;2023-09-08T05:02:10;19.80;99.90
7516;DHT22;3799;47.184;8.538;2023-09-08T05:04:57;19.60;99.90
7516;DHT22;3799;47.184;8.538;2023-09-08T05:07:47;19.40;99.90
7516;DHT22;3799;47.184;8.538;2023-09-08T05:10:40;19.60;99.90
7516;DHT22;3799;47.184;8.538;2023-09-08T05:13:28;19.50;99.90
7516;DHT22;3799;47.184;8.538;2023-09-08T05:16:26;19.40;99.90
7516;DHT22;3799;47.184;8.538;2023-09-08T05:19:24;19.60;99.90
7516;DHT22;3799;47.184;8.538;2023-09-08T05:22:11;19.90;99.90
7516;DHT22;3799;47.184;8.538;2023-09-08T05:25:04;19.90;99.90
7516;DHT22;3799;47.184;8.538;2023-09-08T05:27:55;20.30;99.90
7516;DHT22;3799;47.184;8.538;2023-09-08T05:30:43;20.50;99.90
7516;DHT22;3799;47.184;8.538;2023-09-08T05:33:31;20.60;99.90
7516;DHT22;3799;47.184;8.538;2023-09-08T05:36:19;20.70;99.90
7516;DHT22;3799;47.184;8.538;2023-09-08T05:39:06;20.70;99.90
7516;DHT22;3799;47.184;8.538;2023-09-08T05:41:59;20.60;99.90
7516;DHT22;3799;47.184;8.538;2023-09-08T05:44:48;20.80;99.90
7516;DHT22;3799;47.184;8.538;2023-09-08T05:47:36;20.90;99.90
7516;DHT22;3799;47.184;8.538;2023-09-08T05:50:23;21.00;99.90
7516;DHT22;3799;47.184;8.538;2023-09-08T05:53:11;21.10;99.90
7516;DHT22;3799;47.184;8.538;2023-09-08T05:55:58;21.10;99.90
7516;DHT22;3799;47.184;8.538;2023-09-08T05:58:48;21.10;99.90
7516;DHT22;3799;47.184;8.538;2023-09-08T06:01:41;21.20;99.90
7516;DHT22;3799;47.184;8.538;2023-09-08T06:04:31;21.30;99.90
7516;DHT22;3799;47.184;8.538;2023-09-08T06:07:20;21.40;99.90
7516;DHT22;3799;47.184;8.538;2023-09-08T06:10:07;21.40;99.90
7516;DHT22;3799;47.184;8.538;2023-09-08T06:12:55;21.50;99.90
7516;DHT22;3799;47.184;8.538;2023-09-08T06:15:44;21.60;99.90
7516;DHT22;3799;47.184;8.538;2023-09-08T06:18:32;21.70;99.90
7516;DHT22;3799;47.184;8.538;2023-09-08T06:21:22;21.70;99.90
7516;DHT22;3799;47.184;8.538;2023-09-08T06:24:10;21.80;99.90
7516;DHT22;3799;47.184;8.538;2023-09-08T06:26:57;21.80;99.90
7516;DHT22;3799;47.184;8.538;2023-09-08T06:29:49;21.80;99.90
7516;DHT22;3799;47.184;8.538;2023-09-08T06:32:42;21.80;99.90
7516;DHT22;3799;47.184;8.538;2023-09-08T06:35:30;21.90;99.90
7516;DHT22;3799;47.184;8.538;2023-09-08T06:38:17;21.80;99.90
7516;DHT22;3799;47.184;8.538;2023-09-08T06:41:14;21.80;99.90
7516;DHT22;3799;47.184;8.538;2023-09-08T06:44:01;21.70;99.90
7516;DHT22;3799;47.184;8.538;2023-09-08T06:47:01;21.70;99.90
7516;DHT22;3799;47.184;8.538;2023-09-08T06:49:55;21.70;99.90
7516;DHT22;3799;47.184;8.538;2023-09-08T06:52:43;21.70;99.90
7516;DHT22;3799;47.184;8.538;2023-09-08T06:55:34;21.70;99.90
7516;DHT22;3799;47.184;8.538;2023-09-08T06:58:21;21.80;99.90
7516;DHT22;3799;47.184;8.538;2023-09-08T07:01:11;21.80;99.90
7516;DHT22;3799;47.184;8.538;2023-09-08T07:03:58;21.90;99.90
7516;DHT22;3799;47.184;8.538;2023-09-08T07:06:49;22.00;99.90
7516;DHT22;3799;47.184;8.538;2023-09-08T07:09:37;22.00;99.90
7516;DHT22;3799;47.184;8.538;2023-09-08T07:12:24;22.10;99.90
7516;DHT22;3799;47.184;8.538;2023-09-08T07:15:12;22.20;99.90
7516;DHT22;3799;47.184;8.538;2023-09-08T07:18:07;22.20;99.90
7516;DHT22;3799;47.184;8.538;2023-09-08T07:20:54;22.20;99.90
7516;DHT22;3799;47.184;8.538;2023-09-08T07:23:42;22.20;99.90
7516;DHT22;3799;47.184;8.538;2023-09-08T07:26:37;22.30;99.90
7516;DHT22;3799;47.184;8.538;2023-09-08T07:29:29;22.30;99.90
7516;DHT22;3799;47.184;8.538;2023-09-08T07:32:26;22.40;99.90
7516;DHT22;3799;47.184;8.538;2023-09-08T07:35:13;22.50;99.90
7516;DHT22;3799;47.184;8.538;2023-09-08T07:38:04;22.60;99.90
7516;DHT22;3799;47.184;8.538;2023-09-08T07:40:51;22.70;99.90
7516;DHT22;3799;47.184;8.538;2023-09-08T07:43:39;22.80;99.90
7516;DHT22;3799;47.184;8.538;2023-09-08T07:46:35;22.90;99.90
7516;DHT22;3799;47.184;8.538;2023-09-08T07:49:23;23.00;99.90
7516;DHT22;3799;47.184;8.538;2023-09-08T07:52:11;23.00;99.90
7516;DHT22;3799;47.184;8.538;2023-09-08T07:55:03;23.10;99.90
7516;DHT22;3799;47.184;8.538;2023-09-08T07:58:01;23.30;99.90
7516;DHT22;3799;47.184;8.538;2023-09-08T08:00:53;23.40;99.90
7516;DHT22;3799;47.184;8.538;2023-09-08T08:03:40;23.40;99.90
7516;DHT22;3799;47.184;8.538;2023-09-08T08:06:30;23.40;99.90
7516;DHT22;3799;47.184;8.538;2023-09-08T08:09:18;23.40;99.90
7516;DHT22;3799;47.184;8.538;2023-09-08T08:12:11;23.50;99.90
7516;DHT22;3799;47.184;8.538;2023-09-08T08:14:58;23.50;99.90
7516;DHT22;3799;47.184;8.538;2023-09-08T08:17:47;23.50;99.90
7516;DHT22;3799;47.184;8.538;2023-09-08T08:20:39;23.60;99.90
7516;DHT22;3799;47.184;8.538;2023-09-08T08:23:26;23.60;99.90
7516;DHT22;3799;47.184;8.538;2023-09-08T08:26:14;23.70;99.90
7516;DHT22;3799;47.184;8.538;2023-09-08T08:29:01;23.70;99.90
7516;DHT22;3799;47.184;8.538;2023-09-08T08:31:48;23.80;99.90
7516;DHT22;3799;47.184;8.538;2023-09-08T08:34:39;23.90;99.90
7516;DHT22;3799;47.184;8.538;2023-09-08T08:37:26;24.00;99.90
7516;DHT22;3799;47.184;8.538;2023-09-08T08:40:15;24.10;99.90
7516;DHT22;3799;47.184;8.538;2023-09-08T08:43:08;24.10;99.90
7516;DHT22;3799;47.184;8.538;2023-09-08T08:46:00;24.20;99.90
7516;DHT22;3799;47.184;8.538;2023-09-08T08:48:52;24.30;99.90
7516;DHT22;3799;47.184;8.538;2023-09-08T08:51:45;24.40;99.90
7516;DHT22;3799;47.184;8.538;2023-09-08T08:54:38;24.40;99.90
7516;DHT22;3799;47.184;8.538;2023-09-08T08:57:27;24.50;99.90
7516;DHT22;3799;47.184;8.538;2023-09-08T09:00:24;24.60;99.90
7516;DHT22;3799;47.184;8.538;2023-09-08T09:03:12;24.70;99.90
7516;DHT22;3799;47.184;8.538;2023-09-08T09:06:02;24.80;99.90
7516;DHT22;3799;47.184;8.538;2023-09-08T09:08:51;24.80;99.90
7516;DHT22;3799;47.184;8.538;2023-09-08T09:11:41;24.90;99.90
7516;DHT22;3799;47.184;8.538;2023-09-08T09:14:45;25.00;99.90
7516;DHT22;3799;47.184;8.538;2023-09-08T09:17:33;25.10;99.90
7516;DHT22;3799;47.184;8.538;2023-09-08T09:20:23;25.20;99.90
7516;DHT22;3799;47.184;8.538;2023-09-08T09:23:10;25.30;99.90
7516;DHT22;3799;47.184;8.538;2023-09-08T09:26:03;25.40;99.90
7516;DHT22;3799;47.184;8.538;2023-09-08T09:29:16;25.60;99.90
7516;DHT22;3799;47.184;8.538;2023-09-08T09:32:06;25.70;99.90
7516;DHT22;3799;47.184;8.538;2023-09-08T09:34:56;25.80;99.90
7516;DHT22;3799;47.184;8.538;2023-09-08T09:37:51;25.90;99.90
7516;DHT22;3799;47.184;8.538;2023-09-08T09:40:42;26.00;99.90
7516;DHT22;3799;47.184;8.538;2023-09-08T09:43:30;26.00;99.90
7516;DHT22;3799;47.184;8.538;2023-09-08T09:46:22;26.10;99.90
7516;DHT22;3799;47.184;8.538;2023-09-08T09:49:13;26.10;99.90
7516;DHT22;3799;47.184;8.538;2023-09-08T09:52:01;26.20;99.90
7516;DHT22;3799;47.184;8.538;2023-09-08T09:54:49;26.20;99.90
7516;DHT22;3799;47.184;8.538;2023-09-08T09:57:40;26.30;99.90
7516;DHT22;3799;47.184;8.538;2023-09-08T10:00:34;26.40;99.90
7516;DHT22;3799;47.184;8.538;2023-09-08T10:03:28;26.50;99.90
7516;DHT22;3799;47.184;8.538;2023-09-08T10:06:26;26.50;99.90
7516;DHT22;3799;47.184;8.538;2023-09-08T10:09:19;26.60;99.90
7516;DHT22;3799;47.184;8.538;2023-09-08T10:12:52;26.70;99.90
7516;DHT22;3799;47.184;8.538;2023-09-08T10:15:44;26.80;99.90
7516;DHT22;3799;47.184;8.538;2023-09-08T10:18:33;26.90;99.90
7516;DHT22;3799;47.184;8.538;2023-09-08T10:21:23;27.10;99.90
7516;DHT22;3799;47.184;8.538;2023-09-08T10:24:27;27.20;99.90
7516;DHT22;3799;47.184;8.538;2023-09-08T10:27:16;27.20;98.30
7516;DHT22;3799;47.184;8.538;2023-09-08T10:30:10;27.30;98.00
7516;DHT22;3799;47.184;8.538;2023-09-08T10:33:01;27.40;97.90
7516;DHT22;3799;47.184;8.538;2023-09-08T10:35:51;27.60;97.50
7516;DHT22;3799;47.184;8.538;2023-09-08T10:38:39;27.70;96.80
7516;DHT22;3799;47.184;8.538;2023-09-08T10:41:29;27.90;96.50
7516;DHT22;3799;47.184;8.538;2023-09-08T10:44:24;28.00;95.80
7516;DHT22;3799;47.184;8.538;2023-09-08T10:48:12;28.20;95.30
7516;DHT22;3799;47.184;8.538;2023-09-08T10:50:35;28.40;95.00
7516;DHT22;3799;47.184;8.538;2023-09-08T10:53:26;28.60;94.80
7516;DHT22;3799;47.184;8.538;2023-09-08T10:56:13;28.80;93.80
7516;DHT22;3799;47.184;8.538;2023-09-08T10:59:04;28.90;91.60
7516;DHT22;3799;47.184;8.538;2023-09-08T11:01:53;29.00;91.50
7516;DHT22;3799;47.184;8.538;2023-09-08T11:04:41;29.00;91.20
7516;DHT22;3799;47.184;8.538;2023-09-08T11:07:32;29.20;90.60
7516;DHT22;3799;47.184;8.538;2023-09-08T11:10:19;29.30;90.10
7516;DHT22;3799;47.184;8.538;2023-09-08T11:13:08;29.50;89.00
7516;DHT22;3799;47.184;8.538;2023-09-08T11:15:56;29.60;90.50
7516;DHT22;3799;47.184;8.538;2023-09-08T11:18:46;29.60;84.90
7516;DHT22;3799;47.184;8.538;2023-09-08T11:21:48;29.60;82.70
7516;DHT22;3799;47.184;8.538;2023-09-08T11:24:41;29.70;82.50
7516;DHT22;3799;47.184;8.538;2023-09-08T11:27:43;29.80;81.80
7516;DHT22;3799;47.184;8.538;2023-09-08T11:30:32;30.00;80.10
7516;DHT22;3799;47.184;8.538;2023-09-08T11:33:22;30.10;78.70
7516;DHT22;3799;47.184;8.538;2023-09-08T11:36:14;30.20;77.10
7516;DHT22;3799;47.184;8.538;2023-09-08T11:39:04;30.20;76.80
7516;DHT22;3799;47.184;8.538;2023-09-08T11:42:08;30.40;76.70
7516;DHT22;3799;47.184;8.538;2023-09-08T11:44:58;30.70;73.60
7516;DHT22;3799;47.184;8.538;2023-09-08T11:47:46;31.00;72.40
7516;DHT22;3799;47.184;8.538;2023-09-08T11:50:37;31.10;70.30
7516;DHT22;3799;47.184;8.538;2023-09-08T11:53:31;31.20;70.10
7516;DHT22;3799;47.184;8.538;2023-09-08T11:56:38;31.30;69.50
7516;DHT22;3799;47.184;8.538;2023-09-08T11:59:31;31.50;68.80
7516;DHT22;3799;47.184;8.538;2023-09-08T12:02:47;31.60;67.70
7516;DHT22;3799;47.184;8.538;2023-09-08T12:05:51;31.70;67.80
7516;DHT22;3799;47.184;8.538;2023-09-08T12:08:39;31.90;66.10
7516;DHT22;3799;47.184;8.538;2023-09-08T12:11:31;32.00;64.30
7516;DHT22;3799;47.184;8.538;2023-09-08T12:14:39;32.30;62.10
7516;DHT22;3799;47.184;8.538;2023-09-08T12:17:56;32.60;61.00
7516;DHT22;3799;47.184;8.538;2023-09-08T12:21:09;33.00;59.70
7516;DHT22;3799;47.184;8.538;2023-09-08T12:24:11;33.20;59.30
7516;DHT22;3799;47.184;8.538;2023-09-08T12:27:08;33.20;58.90
7516;DHT22;3799;47.184;8.538;2023-09-08T12:30:02;33.40;58.90
7516;DHT22;3799;47.184;8.538;2023-09-08T12:33:09;33.50;58.90
7516;DHT22;3799;47.184;8.538;2023-09-08T12:35:57;33.50;58.10
7516;DHT22;3799;47.184;8.538;2023-09-08T12:38:54;33.30;58.20
7516;DHT22;3799;47.184;8.538;2023-09-08T12:41:42;33.30;58.30
7516;DHT22;3799;47.184;8.538;2023-09-08T12:44:29;33.40;57.80
7516;DHT22;3799;47.184;8.538;2023-09-08T12:47:17;33.50;56.80
7516;DHT22;3799;47.184;8.538;2023-09-08T12:50:17;33.50;56.70
7516;DHT22;3799;47.184;8.538;2023-09-08T12:53:09;33.60;56.60
7516;DHT22;3799;47.184;8.538;2023-09-08T12:56:09;33.60;57.20
7516;DHT22;3799;47.184;8.538;2023-09-08T12:58:57;33.80;58.20
7516;DHT22;3799;47.184;8.538;2023-09-08T13:01:45;34.00;57.70
7516;DHT22;3799;47.184;8.538;2023-09-08T13:04:58;34.20;55.90
7516;DHT22;3799;47.184;8.538;2023-09-08T13:08:21;34.40;54.40
7516;DHT22;3799;47.184;8.538;2023-09-08T13:11:11;34.50;52.60
7516;DHT22;3799;47.184;8.538;2023-09-08T13:14:30;34.60;52.50
7516;DHT22;3799;47.184;8.538;2023-09-08T13:17:32;34.70;51.50
7516;DHT22;3799;47.184;8.538;2023-09-08T13:20:30;34.80;50.70
7516;DHT22;3799;47.184;8.538;2023-09-08T13:23:18;34.80;50.40
7516;DHT22;3799;47.184;8.538;2023-09-08T13:26:05;35.10;50.70
7516;DHT22;3799;47.184;8.538;2023-09-08T13:28:56;35.10;51.50
7516;DHT22;3799;47.184;8.538;2023-09-08T13:31:47;35.20;51.30
7516;DHT22;3799;47.184;8.538;2023-09-08T13:34:40;35.20;50.30
7516;DHT22;3799;47.184;8.538;2023-09-08T13:37:33;35.20;49.50
7516;DHT22;3799;47.184;8.538;2023-09-08T13:40:29;35.20;49.20
7516;DHT22;3799;47.184;8.538;2023-09-08T13:43:38;35.20;48.60
7516;DHT22;3799;47.184;8.538;2023-09-08T13:47:26;35.30;49.30
7516;DHT22;3799;47.184;8.538;2023-09-08T13:50:27;35.50;48.90
7516;DHT22;3799;47.184;8.538;2023-09-08T13:53:47;35.60;48.80
7516;DHT22;3799;47.184;8.538;2023-09-08T13:56:57;35.70;48.90
7516;DHT22;3799;47.184;8.538;2023-09-08T14:00:18;35.60;48.60
7516;DHT22;3799;47.184;8.538;2023-09-08T14:03:34;35.70;48.70
7516;DHT22;3799;47.184;8.538;2023-09-08T14:06:47;35.80;48.00
7516;DHT22;3799;47.184;8.538;2023-09-08T14:09:54;36.00;47.90
7516;DHT22;3799;47.184;8.538;2023-09-08T14:13:01;36.10;48.30
7516;DHT22;3799;47.184;8.538;2023-09-08T14:16:02;36.20;48.10
7516;DHT22;3799;47.184;8.538;2023-09-08T14:19:01;36.30;47.30
7516;DHT22;3799;47.184;8.538;2023-09-08T14:22:04;36.40;47.20
7516;DHT22;3799;47.184;8.538;2023-09-08T14:24:54;36.60;46.90
7516;DHT22;3799;47.184;8.538;2023-09-08T14:27:55;36.60;46.20
7516;DHT22;3799;47.184;8.538;2023-09-08T14:30:58;36.70;46.60
7516;DHT22;3799;47.184;8.538;2023-09-08T14:33:54;36.80;46.70
7516;DHT22;3799;47.184;8.538;2023-09-08T14:36:44;36.80;46.40
7516;DHT22;3799;47.184;8.538;2023-09-08T14:39:54;36.80;45.70
7516;DHT22;3799;47.184;8.538;2023-09-08T14:43:03;36.70;45.70
7516;DHT22;3799;47.184;8.538;2023-09-08T14:45:58;36.80;45.60
7516;DHT22;3799;47.184;8.538;2023-09-08T14:48:48;36.80;45.40
7516;DHT22;3799;47.184;8.538;2023-09-08T14:51:47;36.80;45.00
7516;DHT22;3799;47.184;8.538;2023-09-08T14:54:55;36.80;45.50
7516;DHT22;3799;47.184;8.538;2023-09-08T14:57:51;37.00;45.80
7516;DHT22;3799;47.184;8.538;2023-09-08T15:01:01;37.20;45.20
7516;DHT22;3799;47.184;8.538;2023-09-08T15:04:07;37.40;45.10
7516;DHT22;3799;47.184;8.538;2023-09-08T15:06:58;37.40;44.20
7516;DHT22;3799;47.184;8.538;2023-09-08T15:09:53;37.40;44.30
7516;DHT22;3799;47.184;8.538;2023-09-08T15:12:50;37.50;44.30
7516;DHT22;3799;47.184;8.538;2023-09-08T15:15:40;37.60;43.90
7516;DHT22;3799;47.184;8.538;2023-09-08T15:18:31;37.70;43.90
7516;DHT22;3799;47.184;8.538;2023-09-08T15:21:35;37.70;43.80
7516;DHT22;3799;47.184;8.538;2023-09-08T15:24:28;37.70;43.60
7516;DHT22;3799;47.184;8.538;2023-09-08T15:27:16;37.60;43.50
7516;DHT22;3799;47.184;8.538;2023-09-08T15:30:06;37.60;44.00
7516;DHT22;3799;47.184;8.538;2023-09-08T15:33:01;37.70;44.10
7516;DHT22;3799;47.184;8.538;2023-09-08T15:35:59;37.70;45.00
7516;DHT22;3799;47.184;8.538;2023-09-08T15:38:47;37.70;44.90
7516;DHT22;3799;47.184;8.538;2023-09-08T15:41:48;37.70;44.90
7516;DHT22;3799;47.184;8.538;2023-09-08T15:44:35;37.60;44.30
7516;DHT22;3799;47.184;8.538;2023-09-08T15:47:24;37.50;43.90
7516;DHT22;3799;47.184;8.538;2023-09-08T15:50:30;37.50;43.80
7516;DHT22;3799;47.184;8.538;2023-09-08T15:53:20;37.50;44.70
7516;DHT22;3799;47.184;8.538;2023-09-08T15:56:10;37.50;44.80
7516;DHT22;3799;47.184;8.538;2023-09-08T15:59:10;37.40;45.10
7516;DHT22;3799;47.184;8.538;2023-09-08T16:01:58;37.40;45.50
7516;DHT22;3799;47.184;8.538;2023-09-08T16:04:53;37.40;45.40
7516;DHT22;3799;47.184;8.538;2023-09-08T16:07:51;37.30;45.40
7516;DHT22;3799;47.184;8.538;2023-09-08T16:10:50;37.10;46.00
7516;DHT22;3799;47.184;8.538;2023-09-08T16:13:50;37.10;46.20
7516;DHT22;3799;47.184;8.538;2023-09-08T16:16:37;37.00;46.90
7516;DHT22;3799;47.184;8.538;2023-09-08T16:19:37;36.90;47.50
7516;DHT22;3799;47.184;8.538;2023-09-08T16:22:28;36.80;47.60
7516;DHT22;3799;47.184;8.538;2023-09-08T16:25:29;36.80;48.00
7516;DHT22;3799;47.184;8.538;2023-09-08T16:28:29;36.60;47.80
7516;DHT22;3799;47.184;8.538;2023-09-08T16:31:17;36.50;47.50
7516;DHT22;3799;47.184;8.538;2023-09-08T16:34:04;36.40;47.90
7516;DHT22;3799;47.184;8.538;2023-09-08T16:37:05;36.20;48.00
7516;DHT22;3799;47.184;8.538;2023-09-08T16:39:59;36.00;48.10
7516;DHT22;3799;47.184;8.538;2023-09-08T16:42:54;35.90;48.20
7516;DHT22;3799;47.184;8.538;2023-09-08T16:45:48;35.70;48.60
7516;DHT22;3799;47.184;8.538;2023-09-08T16:48:36;35.40;48.90
7516;DHT22;3799;47.184;8.538;2023-09-08T16:51:23;35.10;49.30
7516;DHT22;3799;47.184;8.538;2023-09-08T16:54:11;35.00;49.50
7516;DHT22;3799;47.184;8.538;2023-09-08T16:57:08;34.80;49.70
7516;DHT22;3799;47.184;8.538;2023-09-08T16:59:56;34.50;49.70
7516;DHT22;3799;47.184;8.538;2023-09-08T17:02:46;34.30;49.80
7516;DHT22;3799;47.184;8.538;2023-09-08T17:05:34;34.00;50.10
7516;DHT22;3799;47.184;8.538;2023-09-08T17:08:21;33.70;50.80
7516;DHT22;3799;47.184;8.538;2023-09-08T17:11:15;33.40;51.20
7516;DHT22;3799;47.184;8.538;2023-09-08T17:14:12;33.10;51.50
7516;DHT22;3799;47.184;8.538;2023-09-08T17:17:00;32.80;52.10
7516;DHT22;3799;47.184;8.538;2023-09-08T17:19:50;32.60;53.20
7516;DHT22;3799;47.184;8.538;2023-09-08T17:22:38;32.30;53.80
7516;DHT22;3799;47.184;8.538;2023-09-08T17:25:26;31.90;53.90
7516;DHT22;3799;47.184;8.538;2023-09-08T17:28:14;31.60;54.50
7516;DHT22;3799;47.184;8.538;2023-09-08T17:31:01;31.30;55.00
7516;DHT22;3799;47.184;8.538;2023-09-08T17:33:51;30.90;55.70
7516;DHT22;3799;47.184;8.538;2023-09-08T17:36:39;30.50;56.30
7516;DHT22;3799;47.184;8.538;2023-09-08T17:39:27;30.10;56.70
7516;DHT22;3799;47.184;8.538;2023-09-08T17:42:14;29.80;57.30
7516;DHT22;3799;47.184;8.538;2023-09-08T17:45:02;29.50;57.90
7516;DHT22;3799;47.184;8.538;2023-09-08T17:47:51;29.10;58.40
7516;DHT22;3799;47.184;8.538;2023-09-08T17:50:39;28.80;59.10
7516;DHT22;3799;47.184;8.538;2023-09-08T17:53:29;28.50;59.70
7516;DHT22;3799;47.184;8.538;2023-09-08T17:56:23;28.20;60.70
7516;DHT22;3799;47.184;8.538;2023-09-08T17:59:11;27.90;62.10
7516;DHT22;3799;47.184;8.538;2023-09-08T18:01:58;27.60;63.50
7516;DHT22;3799;47.184;8.538;2023-09-08T18:04:45;27.40;65.20
7516;DHT22;3799;47.184;8.538;2023-09-08T18:07:33;27.20;67.20
7516;DHT22;3799;47.184;8.538;2023-09-08T18:10:21;26.90;69.00
7516;DHT22;3799;47.184;8.538;2023-09-08T18:13:09;26.70;71.40
7516;DHT22;3799;47.184;8.538;2023-09-08T18:16:01;26.60;74.00
7516;DHT22;3799;47.184;8.538;2023-09-08T18:18:50;26.40;77.00
7516;DHT22;3799;47.184;8.538;2023-09-08T18:21:38;26.30;80.70
7516;DHT22;3799;47.184;8.538;2023-09-08T18:24:26;26.10;85.50
7516;DHT22;3799;47.184;8.538;2023-09-08T18:27:14;26.00;90.00
7516;DHT22;3799;47.184;8.538;2023-09-08T18:30:02;25.80;92.50
7516;DHT22;3799;47.184;8.538;2023-09-08T18:32:50;25.80;94.40
7516;DHT22;3799;47.184;8.538;2023-09-08T18:35:38;25.70;96.00
7516;DHT22;3799;47.184;8.538;2023-09-08T18:38:27;25.60;97.00
7516;DHT22;3799;47.184;8.538;2023-09-08T18:41:14;25.60;98.00
7516;DHT22;3799;47.184;8.538;2023-09-08T18:44:05;25.50;99.00
7516;DHT22;3799;47.184;8.538;2023-09-08T18:46:52;25.40;99.50
7516;DHT22;3799;47.184;8.538;2023-09-08T18:49:47;25.30;99.90